createdAt,value
2019-03-25T00:00:08.868Z,68.60
2019-03-25T00:02:37.170Z,66.63
2019-03-25T00:05:06.589Z,68.17
2019-03-25T00:07:34.883Z,70.13
2019-03-25T00:10:03.931Z,66.30
2019-03-25T00:12:32.217Z,65.97
2019-03-25T00:15:00.527Z,66.80
2019-03-25T00:17:28.790Z,69.40
2019-03-25T00:19:57.143Z,69.37
2019-03-25T00:22:25.402Z,70.47
2019-03-25T00:24:53.745Z,69.17
2019-03-25T00:27:22.021Z,68.17
2019-03-25T00:29:50.295Z,67.00
2019-03-25T00:32:18.564Z,70.60
2019-03-25T00:34:46.823Z,69.20
2019-03-25T00:37:15.081Z,68.13
2019-03-25T00:39:43.357Z,69.13
2019-03-25T00:42:11.613Z,70.73
2019-03-25T00:44:39.883Z,68.63
2019-03-25T00:47:08.281Z,68.03
2019-03-25T00:49:36.563Z,69.17
2019-03-25T00:52:04.835Z,69.83
2019-03-25T00:54:33.094Z,67.43
2019-03-25T00:57:01.428Z,68.23
2019-03-25T00:59:29.701Z,68.00
2019-03-25T01:01:57.988Z,68.60
2019-03-25T01:04:26.268Z,70.30
2019-03-25T01:06:54.604Z,69.63
2019-03-25T01:09:22.870Z,67.07
2019-03-25T01:11:51.144Z,71.13
2019-03-25T01:14:19.405Z,69.77
2019-03-25T01:16:47.759Z,69.17
2019-03-25T01:19:16.037Z,69.40
2019-03-25T01:21:44.398Z,64.43
2019-03-25T01:24:12.698Z,66.30
2019-03-25T01:26:41.010Z,70.13
2019-03-25T01:29:09.349Z,65.50
2019-03-25T01:31:37.644Z,66.67
2019-03-25T01:34:05.980Z,67.87
2019-03-25T01:36:34.277Z,66.43
2019-03-25T01:39:02.695Z,64.90
2019-03-25T01:41:30.986Z,65.47
2019-03-25T01:43:59.282Z,68.17
2019-03-25T01:46:27.676Z,67.87
2019-03-25T01:48:55.982Z,69.63
2019-03-25T01:51:24.265Z,68.37
2019-03-25T01:53:52.547Z,68.03
2019-03-25T01:56:21.007Z,68.00
2019-03-25T01:58:49.275Z,67.00
2019-03-25T02:01:17.615Z,65.57
2019-03-25T02:03:45.904Z,66.93
2019-03-25T02:06:14.172Z,63.77
2019-03-25T02:08:42.739Z,61.90
2019-03-25T02:11:11.087Z,60.67
2019-03-25T02:13:39.377Z,59.80
2019-03-25T02:16:07.787Z,59.40
2019-03-25T02:18:36.175Z,61.23
2019-03-25T02:21:05.234Z,58.73
2019-03-25T02:23:33.580Z,55.10
2019-03-25T02:26:01.829Z,53.03
2019-03-25T02:28:30.087Z,57.77
2019-03-25T02:30:58.418Z,55.27
2019-03-25T02:33:26.842Z,55.63
2019-03-25T02:35:55.181Z,54.77
2019-03-25T02:38:23.470Z,55.27
2019-03-25T02:40:51.926Z,58.13
2019-03-25T02:43:20.197Z,59.33
2019-03-25T02:45:48.513Z,58.57
2019-03-25T02:48:16.848Z,59.80
2019-03-25T02:50:45.180Z,58.93
2019-03-25T02:53:13.546Z,56.47
2019-03-25T02:55:42.671Z,57.63
2019-03-25T02:58:11.125Z,57.00
2019-03-25T03:00:39.431Z,57.07
2019-03-25T03:03:07.968Z,56.37
2019-03-25T03:05:36.828Z,56.00
2019-03-25T03:08:05.100Z,53.70
2019-03-25T03:10:33.409Z,54.53
2019-03-25T03:13:01.719Z,54.33
2019-03-25T03:15:30.040Z,53.27
2019-03-25T03:17:58.373Z,53.57
2019-03-25T03:20:26.789Z,52.27
2019-03-25T03:22:55.213Z,51.03
2019-03-25T03:25:23.528Z,49.60
2019-03-25T03:27:51.980Z,47.50
2019-03-25T03:30:20.314Z,46.30
2019-03-25T03:32:48.598Z,45.67
2019-03-25T03:35:16.894Z,45.17
2019-03-25T03:37:45.294Z,43.30
2019-03-25T03:40:13.592Z,43.27
2019-03-25T03:42:41.843Z,42.90
2019-03-25T03:45:10.713Z,40.33
2019-03-25T03:47:39.092Z,41.57
2019-03-25T03:50:07.562Z,41.43
2019-03-25T03:52:36.207Z,41.87
2019-03-25T03:55:05.849Z,40.93
2019-03-25T03:57:34.103Z,40.77
2019-03-25T04:00:02.590Z,41.80
2019-03-25T04:02:30.838Z,40.63
2019-03-25T04:04:59.088Z,41.90
2019-03-25T04:07:27.391Z,38.23
2019-03-25T04:09:55.683Z,38.50
2019-03-25T04:12:23.982Z,38.53
2019-03-25T04:14:52.262Z,40.30
2019-03-25T04:17:20.552Z,38.80
2019-03-25T04:19:48.882Z,39.93
2019-03-25T04:22:17.230Z,36.87
2019-03-25T04:24:45.712Z,37.00
2019-03-25T04:27:15.815Z,36.87
2019-03-25T04:29:44.111Z,36.37
2019-03-25T04:32:12.777Z,35.53
2019-03-25T04:34:41.042Z,35.60
2019-03-25T04:37:09.389Z,35.77
2019-03-25T04:39:37.777Z,33.63
2019-03-25T04:42:09.082Z,32.63
2019-03-25T04:44:37.498Z,33.27
2019-03-25T04:47:05.821Z,32.33
2019-03-25T04:49:34.305Z,34.43
2019-03-25T04:52:02.850Z,32.93
2019-03-25T04:54:31.324Z,32.40
2019-03-25T04:56:59.783Z,32.13
2019-03-25T04:59:28.041Z,31.47
2019-03-25T05:01:56.316Z,31.40
2019-03-25T05:04:32.535Z,30.33
2019-03-25T05:07:00.939Z,30.17
2019-03-25T05:09:29.462Z,28.53
2019-03-25T05:11:57.953Z,28.93
2019-03-25T05:14:26.376Z,28.10
2019-03-25T05:16:54.812Z,29.80
2019-03-25T05:19:23.326Z,30.23
2019-03-25T05:21:51.771Z,31.27
2019-03-25T05:24:20.050Z,30.77
2019-03-25T05:26:51.339Z,30.90
2019-03-25T05:29:18.361Z,29.87
2019-03-25T05:31:48.487Z,28.37
2019-03-25T05:34:17.018Z,26.57
2019-03-25T05:36:45.404Z,25.90
2019-03-25T05:39:14.933Z,25.07
2019-03-25T05:41:43.479Z,24.03
2019-03-25T05:44:11.839Z,23.73
2019-03-25T05:46:40.254Z,27.23
2019-03-25T05:49:08.627Z,25.60
2019-03-25T05:51:37.082Z,24.70
2019-03-25T05:54:05.527Z,23.93
2019-03-25T05:56:34.496Z,22.77
2019-03-25T05:59:02.754Z,21.43
2019-03-25T06:01:31.563Z,22.47
2019-03-25T06:03:59.840Z,20.93
2019-03-25T06:06:28.154Z,19.20
2019-03-25T06:08:56.430Z,19.43
2019-03-25T06:11:24.788Z,19.37
2019-03-25T06:13:53.023Z,17.67
2019-03-25T06:16:21.297Z,16.43
2019-03-25T06:18:49.598Z,16.20
2019-03-25T06:21:17.982Z,16.90
2019-03-25T06:23:46.371Z,16.93
2019-03-25T06:26:14.862Z,16.27
2019-03-25T06:28:43.334Z,16.50
2019-03-25T06:31:11.783Z,14.77
2019-03-25T06:33:40.094Z,15.80
2019-03-25T06:36:08.421Z,15.37
2019-03-25T06:38:36.860Z,15.33
2019-03-25T06:41:05.193Z,14.67
2019-03-25T06:43:33.463Z,16.53
2019-03-25T06:46:01.775Z,14.00
2019-03-25T06:48:30.066Z,13.83
2019-03-25T06:50:58.366Z,13.93
2019-03-25T06:53:26.660Z,13.80
2019-03-25T06:55:55.059Z,13.60
2019-03-25T06:58:23.326Z,13.43
2019-03-25T07:00:51.761Z,14.27
2019-03-25T07:03:20.074Z,14.07
2019-03-25T07:05:48.417Z,14.33
2019-03-25T07:08:16.716Z,13.57
2019-03-25T07:10:45.002Z,14.27
2019-03-25T07:13:13.251Z,13.50
2019-03-25T07:15:44.067Z,14.67
2019-03-25T07:18:11.528Z,14.97
2019-03-25T07:20:39.824Z,13.70
2019-03-25T07:23:10.586Z,14.50
2019-03-25T07:25:39.004Z,14.90
2019-03-25T07:28:07.459Z,14.77
2019-03-25T07:30:35.737Z,15.53
2019-03-25T07:33:04.036Z,14.10
2019-03-25T07:35:32.349Z,15.43
2019-03-25T07:38:00.702Z,14.57
2019-03-25T07:40:29.072Z,13.03
2019-03-25T07:42:57.356Z,13.63
2019-03-25T07:45:25.683Z,13.43
2019-03-25T07:47:53.944Z,13.97
2019-03-25T07:50:22.202Z,13.93
2019-03-25T07:52:50.475Z,14.33
2019-03-25T07:55:18.734Z,13.30
2019-03-25T07:57:48.499Z,14.00
2019-03-25T08:00:17.302Z,12.33
2019-03-25T08:02:45.565Z,12.13
2019-03-25T08:05:13.986Z,13.10
2019-03-25T08:07:42.257Z,12.60
2019-03-25T08:10:10.554Z,12.43
2019-03-25T08:12:38.802Z,11.80
2019-03-25T08:15:07.413Z,11.97
2019-03-25T08:17:35.685Z,10.10
2019-03-25T08:20:08.430Z,10.83
2019-03-25T08:22:36.689Z,9.17
2019-03-25T08:25:06.519Z,9.30
2019-03-25T08:27:34.773Z,9.50
2019-03-25T08:30:03.394Z,9.73
2019-03-25T08:32:31.666Z,9.43
2019-03-25T08:34:59.946Z,8.53
2019-03-25T08:37:28.201Z,9.47
2019-03-25T08:39:56.459Z,8.33
2019-03-25T08:42:26.371Z,8.93
2019-03-25T08:44:54.631Z,9.17
2019-03-25T08:47:22.986Z,8.50
2019-03-25T08:49:51.221Z,7.60
2019-03-25T08:52:19.507Z,10.00
2019-03-25T08:54:47.894Z,9.57
2019-03-25T08:57:18.016Z,9.03
2019-03-25T08:59:46.489Z,8.73
2019-03-25T09:02:14.933Z,8.53
2019-03-25T09:04:43.211Z,7.67
2019-03-25T09:07:11.474Z,7.93
2019-03-25T09:09:39.724Z,7.63
2019-03-25T09:12:07.982Z,8.20
2019-03-25T09:14:36.240Z,7.27
2019-03-25T09:17:04.567Z,7.50
2019-03-25T09:19:32.833Z,7.27
2019-03-25T09:22:01.121Z,7.27
2019-03-25T09:24:29.371Z,6.97
2019-03-25T09:26:57.630Z,7.30
2019-03-25T09:29:26.126Z,7.17
2019-03-25T09:31:54.373Z,7.67
2019-03-25T09:34:22.771Z,6.83
2019-03-25T09:36:51.149Z,5.87
2019-03-25T09:39:19.418Z,6.53
2019-03-25T09:41:47.704Z,7.07
2019-03-25T09:44:15.951Z,5.87
2019-03-25T09:46:44.215Z,6.97
2019-03-25T09:49:12.475Z,7.50
2019-03-25T09:51:40.893Z,6.40
2019-03-25T09:54:09.252Z,6.67
2019-03-25T09:56:37.668Z,6.70
2019-03-25T09:59:05.932Z,6.80
2019-03-25T10:01:34.385Z,6.83
2019-03-25T10:04:02.701Z,7.70
2019-03-25T10:06:31.107Z,7.03
2019-03-25T10:08:59.429Z,7.53
2019-03-25T10:11:27.815Z,7.83
2019-03-25T10:13:56.214Z,7.20
2019-03-25T10:16:24.586Z,6.97
2019-03-25T10:18:52.947Z,7.63
2019-03-25T10:21:21.270Z,6.90
2019-03-25T10:23:49.585Z,6.73
2019-03-25T10:26:17.946Z,6.80
2019-03-25T10:28:48.843Z,6.87
2019-03-25T10:31:17.500Z,7.10
2019-03-25T10:33:45.983Z,7.40
2019-03-25T10:36:14.329Z,6.63
2019-03-25T10:38:42.681Z,6.53
2019-03-25T10:41:11.037Z,5.93
2019-03-25T10:43:39.448Z,6.17
2019-03-25T10:46:07.759Z,6.17
2019-03-25T10:48:36.190Z,6.07
2019-03-25T10:51:04.613Z,6.00
2019-03-25T10:53:32.878Z,5.87
2019-03-25T10:56:01.249Z,6.60
2019-03-25T10:58:29.687Z,6.33
2019-03-25T11:00:57.943Z,5.77
2019-03-25T11:03:26.192Z,6.60
2019-03-25T11:05:54.455Z,6.10
2019-03-25T11:08:22.715Z,6.43
2019-03-25T11:10:51.094Z,6.13
2019-03-25T11:13:19.389Z,6.63
2019-03-25T11:15:47.666Z,6.37
2019-03-25T11:18:15.992Z,5.83
2019-03-25T11:20:44.507Z,5.20
2019-03-25T11:23:12.821Z,5.20
2019-03-25T11:25:41.088Z,5.47
2019-03-25T11:28:09.338Z,6.17
2019-03-25T11:30:51.626Z,5.80
2019-03-25T11:33:20.007Z,5.57
2019-03-25T11:35:48.286Z,5.83
2019-03-25T11:38:16.568Z,4.83
2019-03-25T11:40:44.959Z,4.93
2019-03-25T11:43:13.307Z,4.60
2019-03-25T11:45:41.691Z,5.00
2019-03-25T11:48:10.024Z,4.70
2019-03-25T11:50:38.349Z,4.73
2019-03-25T11:53:06.720Z,4.07
2019-03-25T11:55:35.069Z,4.30
2019-03-25T11:58:03.467Z,4.50
2019-03-25T12:00:31.888Z,5.23
2019-03-25T12:03:00.152Z,5.00
2019-03-25T12:05:28.471Z,5.00
2019-03-25T12:07:56.760Z,6.33
2019-03-25T12:10:25.125Z,5.37
2019-03-25T12:12:53.475Z,5.53
2019-03-25T12:15:21.726Z,5.20
2019-03-25T12:17:50.072Z,4.77
2019-03-25T12:20:18.405Z,4.83
2019-03-25T12:22:46.748Z,4.87
2019-03-25T12:25:15.102Z,5.57
2019-03-25T12:27:43.534Z,5.13
2019-03-25T12:30:11.828Z,5.40
2019-03-25T12:32:40.148Z,5.60
2019-03-25T12:35:08.580Z,6.30
2019-03-25T12:37:36.892Z,6.03
2019-03-25T12:40:07.745Z,7.00
2019-03-25T12:42:35.628Z,6.40
2019-03-25T12:45:05.817Z,6.43
2019-03-25T12:47:34.126Z,7.60
2019-03-25T12:50:02.431Z,6.57
2019-03-25T12:52:31.067Z,6.17
2019-03-25T12:54:59.308Z,6.60
2019-03-25T12:57:27.719Z,5.77
2019-03-25T12:59:56.336Z,6.03
2019-03-25T13:02:24.841Z,6.37
2019-03-25T13:04:53.345Z,6.77
2019-03-25T13:07:21.623Z,5.77
2019-03-25T13:09:49.892Z,5.00
2019-03-25T13:12:18.285Z,5.07
2019-03-25T13:14:46.667Z,5.30
2019-03-25T13:17:15.288Z,5.23
2019-03-25T13:19:43.745Z,5.00
2019-03-25T13:22:12.019Z,6.13
2019-03-25T13:24:41.349Z,5.47
2019-03-25T13:27:10.521Z,5.77
2019-03-25T13:29:38.866Z,5.13
2019-03-25T13:32:07.215Z,5.57
2019-03-25T13:34:35.610Z,5.20
2019-03-25T13:37:04.032Z,4.97
2019-03-25T13:39:32.583Z,5.13
2019-03-25T13:42:01.004Z,5.03
2019-03-25T13:44:29.275Z,5.43
2019-03-25T13:46:57.531Z,4.87
2019-03-25T13:49:25.878Z,5.53
2019-03-25T13:51:54.183Z,5.67
2019-03-25T13:54:22.525Z,5.73
2019-03-25T13:56:50.809Z,5.57
2019-03-25T13:59:19.078Z,5.40
2019-03-25T14:01:47.360Z,5.80
2019-03-25T14:04:15.611Z,5.73
2019-03-25T14:06:43.916Z,6.10
2019-03-25T14:09:12.168Z,5.60
2019-03-25T14:11:40.431Z,6.00
2019-03-25T14:14:08.716Z,5.83
2019-03-25T14:16:37.066Z,5.30
2019-03-25T14:19:05.319Z,5.67
2019-03-25T14:21:33.586Z,5.20
2019-03-25T14:24:01.852Z,5.53
2019-03-25T14:26:30.116Z,4.83
2019-03-25T14:28:58.432Z,5.17
2019-03-25T14:31:26.756Z,4.70
2019-03-25T14:33:55.034Z,5.03
2019-03-25T14:36:23.287Z,4.70
2019-03-25T14:38:51.548Z,4.57
2019-03-25T14:41:19.835Z,4.57
2019-03-25T14:43:48.100Z,4.53
2019-03-25T14:46:16.368Z,4.97
2019-03-25T14:48:44.643Z,5.00
2019-03-25T14:51:13.033Z,5.00
2019-03-25T14:53:45.091Z,4.97
2019-03-25T14:56:11.247Z,4.53
2019-03-25T14:58:39.535Z,4.80
2019-03-25T15:01:07.799Z,4.93
2019-03-25T15:03:36.104Z,5.27
2019-03-25T15:06:04.470Z,5.70
2019-03-25T15:08:32.725Z,4.97
2019-03-25T15:11:00.982Z,5.80
2019-03-25T15:13:29.300Z,4.93
2019-03-25T15:15:57.525Z,6.03
2019-03-25T15:18:25.776Z,5.50
2019-03-25T15:20:54.044Z,6.40
2019-03-25T15:23:22.377Z,6.17
2019-03-25T15:25:50.657Z,5.60
2019-03-25T15:28:18.907Z,6.10
2019-03-25T15:30:47.166Z,6.30
2019-03-25T15:33:15.444Z,6.47
2019-03-25T15:35:43.742Z,6.20
2019-03-25T15:38:12.020Z,5.60
2019-03-25T15:40:40.276Z,5.80
2019-03-25T15:43:08.553Z,5.37
2019-03-25T15:45:36.810Z,5.70
2019-03-25T15:48:05.078Z,5.93
2019-03-25T15:50:33.322Z,5.70
2019-03-25T15:53:01.593Z,5.10
2019-03-25T15:55:29.835Z,5.83
2019-03-25T15:57:58.101Z,6.00
2019-03-25T16:00:26.365Z,6.00
2019-03-25T16:02:54.622Z,6.20
2019-03-25T16:05:22.882Z,6.17
2019-03-25T16:07:51.143Z,5.40
2019-03-25T16:10:19.398Z,6.43
2019-03-25T16:12:47.660Z,6.60
2019-03-25T16:15:19.255Z,6.13
2019-03-25T16:17:47.649Z,5.80
2019-03-25T16:20:15.911Z,6.83
2019-03-25T16:22:46.418Z,6.07
2019-03-25T16:25:17.599Z,6.33
2019-03-25T16:27:46.001Z,6.37
2019-03-25T16:30:14.501Z,5.60
2019-03-25T16:32:42.977Z,5.97
2019-03-25T16:35:11.658Z,5.80
2019-03-25T16:37:40.086Z,6.50
2019-03-25T16:40:08.412Z,6.60
2019-03-25T16:42:36.876Z,6.47
2019-03-25T16:45:05.386Z,6.87
2019-03-25T16:47:33.868Z,6.17
2019-03-25T16:50:02.277Z,6.70
2019-03-25T16:52:30.716Z,6.20
2019-03-25T16:54:59.090Z,7.13
2019-03-25T16:57:29.067Z,6.17
2019-03-25T16:59:57.329Z,5.87
2019-03-25T17:02:25.753Z,5.93
2019-03-25T17:04:54.179Z,4.13
2019-03-25T17:07:22.642Z,3.17
2019-03-25T17:09:50.911Z,3.57
2019-03-25T17:12:19.166Z,3.57
2019-03-25T17:14:47.505Z,4.07
2019-03-25T17:17:15.751Z,3.50
2019-03-25T17:19:44.008Z,3.20
2019-03-25T17:22:12.281Z,3.30
2019-03-25T17:24:40.541Z,3.10
2019-03-25T17:27:08.797Z,2.90
2019-03-25T17:29:37.041Z,2.80
2019-03-25T17:32:05.297Z,2.90
2019-03-25T17:34:33.609Z,3.40
2019-03-25T17:37:01.816Z,2.90
2019-03-25T17:39:30.074Z,2.93
2019-03-25T17:41:58.357Z,3.03
2019-03-25T17:44:26.635Z,3.60
2019-03-25T17:46:54.887Z,3.90
2019-03-25T17:49:23.138Z,4.17
2019-03-25T17:51:51.399Z,3.20
2019-03-25T17:54:19.662Z,4.17
2019-03-25T17:56:47.918Z,3.47
2019-03-25T17:59:16.181Z,2.70
2019-03-25T18:01:44.425Z,3.20
2019-03-25T18:04:12.682Z,3.53
2019-03-25T18:06:40.938Z,3.53
2019-03-25T18:09:09.189Z,2.97
2019-03-25T18:11:37.444Z,3.57
2019-03-25T18:14:05.692Z,3.80
2019-03-25T18:16:33.962Z,4.20
2019-03-25T18:19:02.215Z,4.77
2019-03-25T18:21:30.632Z,4.77
2019-03-25T18:23:58.892Z,5.43
2019-03-25T18:26:27.148Z,7.50
2019-03-25T18:28:55.413Z,6.50
2019-03-25T18:31:23.675Z,5.67
2019-03-25T18:33:51.926Z,5.90
2019-03-25T18:36:20.186Z,6.13
2019-03-25T18:38:48.436Z,5.27
2019-03-25T18:41:16.691Z,5.00
2019-03-25T18:43:45.055Z,4.90
2019-03-25T18:46:13.292Z,6.20
2019-03-25T18:48:41.539Z,5.33
2019-03-25T18:51:09.796Z,5.60
2019-03-25T18:53:38.057Z,5.70
2019-03-25T18:56:06.309Z,5.63
2019-03-25T18:58:34.588Z,6.57
2019-03-25T19:01:02.842Z,5.83
2019-03-25T19:03:31.168Z,7.03
2019-03-25T19:05:59.429Z,10.30
2019-03-25T19:08:27.690Z,10.33
2019-03-25T19:10:55.977Z,9.07
2019-03-25T19:13:25.170Z,10.63
2019-03-25T19:15:53.420Z,14.23
2019-03-25T19:18:21.719Z,11.60
2019-03-25T19:20:49.971Z,10.20
2019-03-25T19:23:18.244Z,9.70
2019-03-25T19:25:46.514Z,9.23
2019-03-25T19:28:14.803Z,8.73
2019-03-25T19:30:43.393Z,8.83
2019-03-25T19:33:13.269Z,7.10
2019-03-25T19:35:41.527Z,7.73
2019-03-25T19:38:10.253Z,7.13
2019-03-25T19:40:38.468Z,7.17
2019-03-25T19:43:06.792Z,6.40
2019-03-25T19:45:35.101Z,6.80
2019-03-25T19:48:03.388Z,7.40
2019-03-25T19:50:31.649Z,8.17
2019-03-25T19:52:59.927Z,7.33
2019-03-25T19:55:28.180Z,6.90
2019-03-25T19:57:56.477Z,7.50
2019-03-25T20:00:33.467Z,6.97
2019-03-25T20:03:01.722Z,7.53
2019-03-25T20:05:30.017Z,7.77
2019-03-25T20:07:58.362Z,6.90
2019-03-25T20:10:34.795Z,6.60
2019-03-25T20:13:03.140Z,7.43
2019-03-25T20:15:45.008Z,7.50
2019-03-25T20:18:01.456Z,8.17
2019-03-25T20:20:29.759Z,7.43
2019-03-25T20:22:58.021Z,8.03
2019-03-25T20:25:26.311Z,7.83
2019-03-25T20:27:54.580Z,6.50
2019-03-25T20:30:22.820Z,6.87
2019-03-25T20:32:51.116Z,7.90
2019-03-25T20:35:19.352Z,6.77
2019-03-25T20:37:48.484Z,8.03
2019-03-25T20:40:16.752Z,7.43
2019-03-25T20:42:45.011Z,7.57
2019-03-25T20:45:13.386Z,6.70
2019-03-25T20:47:41.633Z,7.23
2019-03-25T20:50:09.892Z,7.73
2019-03-25T20:52:38.165Z,7.10
2019-03-25T20:55:07.398Z,7.43
2019-03-25T20:57:35.645Z,6.70
2019-03-25T21:00:08.217Z,7.37
2019-03-25T21:02:44.962Z,7.00
2019-03-25T21:05:07.038Z,8.00
2019-03-25T21:07:35.350Z,9.47
2019-03-25T21:10:05.929Z,7.73
2019-03-25T21:12:34.230Z,7.03
2019-03-25T21:15:02.803Z,7.33
2019-03-25T21:17:31.198Z,7.83
2019-03-25T21:19:59.440Z,8.10
2019-03-25T21:22:27.693Z,7.60
2019-03-25T21:24:56.003Z,8.47
2019-03-25T21:27:24.251Z,8.20
2019-03-25T21:29:52.622Z,7.73
2019-03-25T21:32:20.949Z,8.57
2019-03-25T21:34:49.250Z,9.50
2019-03-25T21:37:17.582Z,8.87
2019-03-25T21:39:45.927Z,9.10
2019-03-25T21:42:14.431Z,7.47
2019-03-25T21:44:42.861Z,7.90
2019-03-25T21:47:11.231Z,7.67
2019-03-25T21:49:41.244Z,8.17
2019-03-25T21:52:09.599Z,8.97
2019-03-25T21:54:37.914Z,8.37
2019-03-25T21:57:06.290Z,8.23
2019-03-25T21:59:34.596Z,8.00
2019-03-25T22:02:02.970Z,7.30
2019-03-25T22:04:31.336Z,7.43
2019-03-25T22:06:59.693Z,6.97
2019-03-25T22:09:28.120Z,8.10
2019-03-25T22:11:56.457Z,7.17
2019-03-25T22:14:24.720Z,8.27
2019-03-25T22:16:53.070Z,8.23
2019-03-25T22:19:21.355Z,8.33
2019-03-25T22:21:49.649Z,8.10
2019-03-25T22:24:17.997Z,8.57
2019-03-25T22:26:46.329Z,7.93
2019-03-25T22:29:14.701Z,8.53
2019-03-25T22:31:43.019Z,8.67
2019-03-25T22:34:11.471Z,8.80
2019-03-25T22:36:39.824Z,7.30
2019-03-25T22:39:09.279Z,9.20
2019-03-25T22:41:37.609Z,9.87
2019-03-25T22:44:06.027Z,8.37
2019-03-25T22:46:34.317Z,9.27
2019-03-25T22:49:05.095Z,12.03
2019-03-25T22:51:33.426Z,15.43
2019-03-25T22:54:01.792Z,18.67
2019-03-25T22:56:30.071Z,17.17
2019-03-25T22:58:58.385Z,14.80
2019-03-25T23:01:26.815Z,12.30
2019-03-25T23:03:55.106Z,9.80
2019-03-25T23:06:23.456Z,9.60
2019-03-25T23:08:51.748Z,8.80
2019-03-25T23:11:20.129Z,9.10
2019-03-25T23:13:48.436Z,9.30
2019-03-25T23:16:16.717Z,9.17
2019-03-25T23:18:44.999Z,8.77
2019-03-25T23:21:13.285Z,9.20
2019-03-25T23:23:44.506Z,9.83
2019-03-25T23:26:12.895Z,10.03
2019-03-25T23:28:41.221Z,10.20
2019-03-25T23:31:09.529Z,9.87
2019-03-25T23:33:37.828Z,9.27
2019-03-25T23:36:06.169Z,10.40
2019-03-25T23:38:34.446Z,10.20
2019-03-25T23:41:02.735Z,8.87
2019-03-25T23:43:31.052Z,9.97
2019-03-25T23:45:59.308Z,9.53
2019-03-25T23:48:27.604Z,10.23
2019-03-25T23:50:56.015Z,9.77
2019-03-25T23:53:24.310Z,9.83
2019-03-25T23:55:52.682Z,10.30
2019-03-25T23:58:20.988Z,9.90
